sensor_id;sensor_type;location;lat;lon;timestamp;pressure;altitude;pressure_sealevel;temperature;humidity
13486;BME280;6815;59.336;17.998;2023-06-10T00:01:26;51973.38;;;-145.37;48.26
13486;BME280;6815;59.336;17.998;2023-06-10T00:03:52;51991.34;;;-145.37;48.20
13486;BME280;6815;59.336;17.998;2023-06-10T00:06:18;51985.34;;;-145.37;49.47
13486;BME280;6815;59.336;17.998;2023-06-10T00:08:43;51999.34;;;-145.37;49.25
13486;BME280;6815;59.336;17.998;2023-06-10T00:11:09;51969.38;;;-145.37;50.43
13486;BME280;6815;59.336;17.998;2023-06-10T00:13:35;51999.34;;;-145.37;50.56
13486;BME280;6815;59.336;17.998;2023-06-10T00:16:01;52151.03;;;-145.37;50.21
13486;BME280;6815;59.336;17.998;2023-06-10T00:18:26;51961.41;;;-145.37;50.24
13486;BME280;6815;59.336;17.998;2023-06-10T00:20:52;51991.34;;;-145.37;50.04
13486;BME280;6815;59.336;17.998;2023-06-10T00:23:21;51985.34;;;-145.37;50.44
13486;BME280;6815;59.336;17.998;2023-06-10T00:25:46;51995.34;;;-145.37;50.70
13486;BME280;6815;59.336;17.998;2023-06-10T00:28:12;52025.28;;;-145.37;50.70
13486;BME280;6815;59.336;17.998;2023-06-10T00:30:38;51949.44;;;-145.37;51.45
13486;BME280;6815;59.336;17.998;2023-06-10T00:33:04;51997.34;;;-145.37;50.76
13486;BME280;6815;59.336;17.998;2023-06-10T00:35:29;51965.41;;;-145.37;50.75
13486;BME280;6815;59.336;17.998;2023-06-10T00:37:55;51961.41;;;-145.37;51.56
13486;BME280;6815;59.336;17.998;2023-06-10T00:40:20;51963.41;;;-145.37;51.77
13486;BME280;6815;59.336;17.998;2023-06-10T00:42:45;51961.41;;;-145.37;51.97
13486;BME280;6815;59.336;17.998;2023-06-10T00:45:11;51997.34;;;-145.37;52.27
13486;BME280;6815;59.336;17.998;2023-06-10T00:47:36;51949.44;;;-145.37;52.58
13486;BME280;6815;59.336;17.998;2023-06-10T00:50:03;51961.41;;;-145.37;52.66
13486;BME280;6815;59.336;17.998;2023-06-10T00:52:29;51979.38;;;-145.37;52.67
13486;BME280;6815;59.336;17.998;2023-06-10T00:54:55;51989.34;;;-145.37;52.81
13486;BME280;6815;59.336;17.998;2023-06-10T00:57:21;51993.34;;;-145.37;53.08
13486;BME280;6815;59.336;17.998;2023-06-10T00:59:48;51995.34;;;-145.37;53.21
13486;BME280;6815;59.336;17.998;2023-06-10T01:02:14;51983.34;;;-145.37;53.02
13486;BME280;6815;59.336;17.998;2023-06-10T01:04:39;52005.31;;;-145.37;53.34
13486;BME280;6815;59.336;17.998;2023-06-10T01:07:25;51999.34;;;-145.37;54.26
13486;BME280;6815;59.336;17.998;2023-06-10T01:15:17;52009.31;;;-145.37;54.66
13486;BME280;6815;59.336;17.998;2023-06-10T01:18:06;52027.28;;;-145.37;55.10
13486;BME280;6815;59.336;17.998;2023-06-10T01:20:34;51983.34;;;-145.37;55.67
13486;BME280;6815;59.336;17.998;2023-06-10T01:23:02;51977.38;;;-145.37;56.21
13486;BME280;6815;59.336;17.998;2023-06-10T01:25:29;51991.34;;;-145.37;55.44
13486;BME280;6815;59.336;17.998;2023-06-10T01:28:09;52031.25;;;-145.37;55.73
13486;BME280;6815;59.336;17.998;2023-06-10T01:33:19;51969.38;;;-145.37;55.63
13486;BME280;6815;59.336;17.998;2023-06-10T01:35:50;51929.47;;;-145.37;55.45
13486;BME280;6815;59.336;17.998;2023-06-10T01:38:17;51997.34;;;-145.37;55.87
13486;BME280;6815;59.336;17.998;2023-06-10T01:40:45;51965.41;;;-145.37;56.13
13486;BME280;6815;59.336;17.998;2023-06-10T01:43:11;51999.34;;;-145.37;56.00
13486;BME280;6815;59.336;17.998;2023-06-10T01:45:37;51953.41;;;-145.37;56.13
13486;BME280;6815;59.336;17.998;2023-06-10T01:48:02;51975.38;;;-145.37;55.83
13486;BME280;6815;59.336;17.998;2023-06-10T01:50:28;51981.38;;;-145.37;55.97
13486;BME280;6815;59.336;17.998;2023-06-10T01:52:53;52011.31;;;-145.37;55.12
13486;BME280;6815;59.336;17.998;2023-06-10T01:55:18;51973.38;;;-145.37;55.48
13486;BME280;6815;59.336;17.998;2023-06-10T01:57:44;51973.38;;;-145.37;54.89
13486;BME280;6815;59.336;17.998;2023-06-10T02:00:10;52005.31;;;-145.37;55.31
13486;BME280;6815;59.336;17.998;2023-06-10T02:02:35;52015.28;;;-145.37;54.49
13486;BME280;6815;59.336;17.998;2023-06-10T02:05:01;51987.34;;;-145.37;55.83
13486;BME280;6815;59.336;17.998;2023-06-10T02:07:26;51987.34;;;-145.37;56.04
13486;BME280;6815;59.336;17.998;2023-06-10T02:09:52;51971.38;;;-145.37;55.23
13486;BME280;6815;59.336;17.998;2023-06-10T02:12:17;52001.31;;;-145.37;55.25
13486;BME280;6815;59.336;17.998;2023-06-10T02:14:43;51941.44;;;-145.37;55.28
13486;BME280;6815;59.336;17.998;2023-06-10T02:17:08;52001.31;;;-145.37;55.42
13486;BME280;6815;59.336;17.998;2023-06-10T02:19:38;51985.34;;;-145.37;56.19
13486;BME280;6815;59.336;17.998;2023-06-10T02:22:07;51999.34;;;-145.37;57.27
13486;BME280;6815;59.336;17.998;2023-06-10T02:24:32;51967.38;;;-145.37;56.33
13486;BME280;6815;59.336;17.998;2023-06-10T02:26:58;51981.38;;;-145.37;55.80
13486;BME280;6815;59.336;17.998;2023-06-10T02:29:25;52009.31;;;-145.37;56.23
13486;BME280;6815;59.336;17.998;2023-06-10T02:31:51;51973.38;;;-145.37;55.89
13486;BME280;6815;59.336;17.998;2023-06-10T02:34:18;51985.34;;;-145.37;56.80
13486;BME280;6815;59.336;17.998;2023-06-10T02:36:43;51955.41;;;-145.37;56.68
13486;BME280;6815;59.336;17.998;2023-06-10T02:39:09;51993.34;;;-145.37;56.09
13486;BME280;6815;59.336;17.998;2023-06-10T02:41:34;51969.38;;;-145.37;56.23
13486;BME280;6815;59.336;17.998;2023-06-10T02:44:00;51957.41;;;-145.37;56.79
13486;BME280;6815;59.336;17.998;2023-06-10T02:46:26;51955.41;;;-145.37;56.55
13486;BME280;6815;59.336;17.998;2023-06-10T02:48:53;51989.34;;;-145.37;56.43
13486;BME280;6815;59.336;17.998;2023-06-10T02:51:19;51985.34;;;-145.37;56.79
13486;BME280;6815;59.336;17.998;2023-06-10T02:53:44;51943.44;;;-145.37;56.61
13486;BME280;6815;59.336;17.998;2023-06-10T02:56:10;51957.41;;;-145.37;56.91
13486;BME280;6815;59.336;17.998;2023-06-10T02:58:36;51977.38;;;-145.37;56.98
13486;BME280;6815;59.336;17.998;2023-06-10T03:01:02;52049.22;;;-145.37;56.63
13486;BME280;6815;59.336;17.998;2023-06-10T03:03:27;52001.31;;;-145.37;56.26
13486;BME280;6815;59.336;17.998;2023-06-10T03:05:53;51951.41;;;-145.37;55.99
13486;BME280;6815;59.336;17.998;2023-06-10T03:08:18;52005.31;;;-145.37;55.56
13486;BME280;6815;59.336;17.998;2023-06-10T03:10:43;52025.28;;;-145.37;55.71
13486;BME280;6815;59.336;17.998;2023-06-10T03:13:09;51961.41;;;-145.37;55.93
13486;BME280;6815;59.336;17.998;2023-06-10T03:15:35;51997.34;;;-145.37;56.18
13486;BME280;6815;59.336;17.998;2023-06-10T03:18:01;51929.47;;;-145.37;56.10
13486;BME280;6815;59.336;17.998;2023-06-10T03:20:27;51973.38;;;-145.37;55.84
13486;BME280;6815;59.336;17.998;2023-06-10T03:22:53;51973.38;;;-145.37;55.13
13486;BME280;6815;59.336;17.998;2023-06-10T03:25:19;52009.31;;;-145.37;55.44
13486;BME280;6815;59.336;17.998;2023-06-10T03:27:46;51969.38;;;-145.37;55.63
13486;BME280;6815;59.336;17.998;2023-06-10T03:30:12;51977.38;;;-145.37;56.25
13486;BME280;6815;59.336;17.998;2023-06-10T03:32:38;52021.28;;;-145.37;55.59
13486;BME280;6815;59.336;17.998;2023-06-10T03:35:04;51961.41;;;-145.37;54.87
13486;BME280;6815;59.336;17.998;2023-06-10T03:37:29;51971.38;;;-145.37;55.10
13486;BME280;6815;59.336;17.998;2023-06-10T03:39:55;51991.34;;;-145.37;54.94
13486;BME280;6815;59.336;17.998;2023-06-10T03:42:20;52033.25;;;-145.37;54.58
13486;BME280;6815;59.336;17.998;2023-06-10T03:44:45;52005.31;;;-145.37;54.45
13486;BME280;6815;59.336;17.998;2023-06-10T03:47:11;52003.31;;;-145.37;54.13
13486;BME280;6815;59.336;17.998;2023-06-10T03:49:38;52005.31;;;-145.37;53.17
13486;BME280;6815;59.336;17.998;2023-06-10T03:52:03;51987.34;;;-145.37;52.76
13486;BME280;6815;59.336;17.998;2023-06-10T03:54:29;52003.31;;;-145.37;52.36
13486;BME280;6815;59.336;17.998;2023-06-10T03:56:54;52005.31;;;-145.37;51.63
13486;BME280;6815;59.336;17.998;2023-06-10T03:59:20;52013.31;;;-145.37;52.15
13486;BME280;6815;59.336;17.998;2023-06-10T04:01:45;51989.34;;;-145.37;51.70
13486;BME280;6815;59.336;17.998;2023-06-10T04:04:13;51939.44;;;-145.37;50.64
13486;BME280;6815;59.336;17.998;2023-06-10T04:06:41;52007.31;;;-145.37;50.02
13486;BME280;6815;59.336;17.998;2023-06-10T04:09:08;52003.31;;;-145.37;49.17
13486;BME280;6815;59.336;17.998;2023-06-10T04:11:35;52007.31;;;-145.37;49.01
13486;BME280;6815;59.336;17.998;2023-06-10T04:14:01;51983.34;;;-145.37;48.73
13486;BME280;6815;59.336;17.998;2023-06-10T04:16:27;51955.41;;;-145.37;48.02
13486;BME280;6815;59.336;17.998;2023-06-10T04:18:52;51933.47;;;-145.37;47.29
13486;BME280;6815;59.336;17.998;2023-06-10T04:21:18;51973.38;;;-145.37;47.21
13486;BME280;6815;59.336;17.998;2023-06-10T04:23:43;51965.41;;;-145.37;46.48
13486;BME280;6815;59.336;17.998;2023-06-10T04:26:08;51995.34;;;-145.37;45.97
13486;BME280;6815;59.336;17.998;2023-06-10T04:28:36;51989.34;;;-145.37;45.15
13486;BME280;6815;59.336;17.998;2023-06-10T04:31:01;51989.34;;;-145.37;45.56
13486;BME280;6815;59.336;17.998;2023-06-10T04:33:29;51961.41;;;-145.37;44.64
13486;BME280;6815;59.336;17.998;2023-06-10T04:35:54;52021.28;;;-145.37;45.22
13486;BME280;6815;59.336;17.998;2023-06-10T04:38:20;51985.34;;;-145.37;44.45
13486;BME280;6815;59.336;17.998;2023-06-10T04:40:46;51989.34;;;-145.37;43.54
13486;BME280;6815;59.336;17.998;2023-06-10T04:43:11;51985.34;;;-145.37;42.63
13486;BME280;6815;59.336;17.998;2023-06-10T04:45:38;52011.31;;;-145.37;43.31
13486;BME280;6815;59.336;17.998;2023-06-10T04:48:03;51995.34;;;-145.37;42.82
13486;BME280;6815;59.336;17.998;2023-06-10T04:50:28;51953.41;;;-145.37;42.83
13486;BME280;6815;59.336;17.998;2023-06-10T04:52:54;51995.34;;;-145.37;42.33
13486;BME280;6815;59.336;17.998;2023-06-10T04:55:22;51957.41;;;-145.37;42.03
13486;BME280;6815;59.336;17.998;2023-06-10T04:57:48;51979.38;;;-145.37;41.61
13486;BME280;6815;59.336;17.998;2023-06-10T05:00:13;51949.44;;;-145.37;41.92
13486;BME280;6815;59.336;17.998;2023-06-10T05:02:39;52003.31;;;-145.37;40.88
13486;BME280;6815;59.336;17.998;2023-06-10T05:05:05;52009.31;;;-145.37;40.98
13486;BME280;6815;59.336;17.998;2023-06-10T05:07:31;51969.38;;;-145.37;41.46
13486;BME280;6815;59.336;17.998;2023-06-10T05:09:57;52001.31;;;-145.37;41.66
13486;BME280;6815;59.336;17.998;2023-06-10T05:12:22;51993.34;;;-145.37;40.82
13486;BME280;6815;59.336;17.998;2023-06-10T05:14:47;51989.34;;;-145.37;40.05
13486;BME280;6815;59.336;17.998;2023-06-10T05:17:13;51959.41;;;-145.37;39.86
13486;BME280;6815;59.336;17.998;2023-06-10T05:19:38;51957.41;;;-145.37;39.11
13486;BME280;6815;59.336;17.998;2023-06-10T05:22:04;51973.38;;;-145.37;39.31
13486;BME280;6815;59.336;17.998;2023-06-10T05:24:29;51965.41;;;-145.37;39.03
13486;BME280;6815;59.336;17.998;2023-06-10T05:26:55;51957.41;;;-145.37;38.55
13486;BME280;6815;59.336;17.998;2023-06-10T05:29:20;51979.38;;;-145.37;38.60
13486;BME280;6815;59.336;17.998;2023-06-10T05:31:46;51961.41;;;-145.37;37.93
13486;BME280;6815;59.336;17.998;2023-06-10T05:34:11;51953.41;;;-145.37;37.94
13486;BME280;6815;59.336;17.998;2023-06-10T05:36:36;51931.47;;;-145.37;38.00
13486;BME280;6815;59.336;17.998;2023-06-10T05:39:02;51959.41;;;-145.37;37.49
13486;BME280;6815;59.336;17.998;2023-06-10T05:41:28;51957.41;;;-145.37;37.08
13486;BME280;6815;59.336;17.998;2023-06-10T05:43:53;51969.38;;;-145.37;36.51
13486;BME280;6815;59.336;17.998;2023-06-10T05:46:19;51889.53;;;-145.37;37.81
13486;BME280;6815;59.336;17.998;2023-06-10T05:48:45;51965.41;;;-145.37;37.11
13486;BME280;6815;59.336;17.998;2023-06-10T05:51:10;51923.47;;;-145.37;36.33
13486;BME280;6815;59.336;17.998;2023-06-10T05:53:35;51969.38;;;-145.37;36.34
13486;BME280;6815;59.336;17.998;2023-06-10T05:56:01;51967.38;;;-145.37;36.18
13486;BME280;6815;59.336;17.998;2023-06-10T05:58:27;51925.47;;;-145.37;35.68
13486;BME280;6815;59.336;17.998;2023-06-10T06:00:52;51931.47;;;-145.37;35.44
13486;BME280;6815;59.336;17.998;2023-06-10T06:03:17;51941.44;;;-145.37;35.44
13486;BME280;6815;59.336;17.998;2023-06-10T06:05:43;51987.34;;;-145.37;35.07
13486;BME280;6815;59.336;17.998;2023-06-10T06:08:09;51959.41;;;-145.37;35.44
13486;BME280;6815;59.336;17.998;2023-06-10T06:10:35;52105.13;;;-145.37;35.38
13486;BME280;6815;59.336;17.998;2023-06-10T06:13:01;52053.22;;;-145.37;35.59
13486;BME280;6815;59.336;17.998;2023-06-10T06:15:27;51927.47;;;-145.37;34.74
13486;BME280;6815;59.336;17.998;2023-06-10T06:17:52;51969.38;;;-145.37;34.68
13486;BME280;6815;59.336;17.998;2023-06-10T06:20:19;51973.38;;;-145.37;34.66
13486;BME280;6815;59.336;17.998;2023-06-10T06:22:45;51957.41;;;-145.37;34.28
13486;BME280;6815;59.336;17.998;2023-06-10T06:25:10;51961.41;;;-145.37;34.91
13486;BME280;6815;59.336;17.998;2023-06-10T06:27:35;51931.47;;;-145.37;34.85
13486;BME280;6815;59.336;17.998;2023-06-10T06:30:01;51959.41;;;-145.37;33.80
13486;BME280;6815;59.336;17.998;2023-06-10T06:32:26;51945.44;;;-145.37;33.82
13486;BME280;6815;59.336;17.998;2023-06-10T06:34:53;51937.44;;;-145.37;34.37
13486;BME280;6815;59.336;17.998;2023-06-10T06:37:23;51893.53;;;-145.37;33.80
13486;BME280;6815;59.336;17.998;2023-06-10T06:39:53;52171.00;;;-145.37;33.73
13486;BME280;6815;59.336;17.998;2023-06-10T06:42:19;51967.38;;;-145.37;34.51
13486;BME280;6815;59.336;17.998;2023-06-10T06:44:45;51947.44;;;-145.37;34.40
13486;BME280;6815;59.336;17.998;2023-06-10T06:47:11;51987.34;;;-145.37;33.50
13486;BME280;6815;59.336;17.998;2023-06-10T06:49:37;51951.41;;;-145.37;32.67
13486;BME280;6815;59.336;17.998;2023-06-10T06:52:03;51967.38;;;-145.37;32.61
13486;BME280;6815;59.336;17.998;2023-06-10T06:54:28;51975.38;;;-145.37;32.35
13486;BME280;6815;59.336;17.998;2023-06-10T06:56:54;51937.44;;;-145.37;32.33
13486;BME280;6815;59.336;17.998;2023-06-10T06:59:19;51917.50;;;-145.37;32.17
13486;BME280;6815;59.336;17.998;2023-06-10T07:01:46;51933.47;;;-145.37;32.04
13486;BME280;6815;59.336;17.998;2023-06-10T07:04:12;51945.44;;;-145.37;31.51
13486;BME280;6815;59.336;17.998;2023-06-10T07:06:37;52103.13;;;-145.37;31.44
13486;BME280;6815;59.336;17.998;2023-06-10T07:09:04;51963.41;;;-145.37;31.44
13486;BME280;6815;59.336;17.998;2023-06-10T07:11:30;52113.09;;;-145.37;31.09
13486;BME280;6815;59.336;17.998;2023-06-10T07:13:55;51967.38;;;-145.37;30.85
13486;BME280;6815;59.336;17.998;2023-06-10T07:16:21;51901.53;;;-145.37;30.58
13486;BME280;6815;59.336;17.998;2023-06-10T07:18:46;51969.38;;;-145.37;31.16
13486;BME280;6815;59.336;17.998;2023-06-10T07:21:12;51969.38;;;-145.37;31.52
13486;BME280;6815;59.336;17.998;2023-06-10T07:23:37;51931.47;;;-145.37;31.38
13486;BME280;6815;59.336;17.998;2023-06-10T07:26:06;51953.41;;;-145.37;31.05
13486;BME280;6815;59.336;17.998;2023-06-10T07:28:32;51959.41;;;-145.37;31.09
13486;BME280;6815;59.336;17.998;2023-06-10T07:30:58;51933.47;;;-145.37;30.67
13486;BME280;6815;59.336;17.998;2023-06-10T07:33:23;51901.53;;;-145.37;31.04
13486;BME280;6815;59.336;17.998;2023-06-10T07:35:49;51959.41;;;-145.37;30.97
13486;BME280;6815;59.336;17.998;2023-06-10T07:38:14;51959.41;;;-145.37;31.31
13486;BME280;6815;59.336;17.998;2023-06-10T07:40:40;51949.44;;;-145.37;31.17
13486;BME280;6815;59.336;17.998;2023-06-10T07:43:05;51937.44;;;-145.37;30.83
13486;BME280;6815;59.336;17.998;2023-06-10T07:45:30;51965.41;;;-145.37;30.78
13486;BME280;6815;59.336;17.998;2023-06-10T07:47:56;51977.38;;;-145.37;30.62
13486;BME280;6815;59.336;17.998;2023-06-10T07:50:21;51877.56;;;-145.37;31.69
13486;BME280;6815;59.336;17.998;2023-06-10T07:52:47;51893.53;;;-145.37;30.92
13486;BME280;6815;59.336;17.998;2023-06-10T07:55:12;51973.38;;;-145.37;30.48
13486;BME280;6815;59.336;17.998;2023-06-10T07:57:37;51913.50;;;-145.37;30.79
13486;BME280;6815;59.336;17.998;2023-06-10T08:00:05;51953.41;;;-145.37;31.36
13486;BME280;6815;59.336;17.998;2023-06-10T08:02:31;51977.38;;;-145.37;31.08
13486;BME280;6815;59.336;17.998;2023-06-10T08:04:56;51957.41;;;-145.37;30.02
13486;BME280;6815;59.336;17.998;2023-06-10T08:07:21;51933.47;;;-145.37;30.25
13486;BME280;6815;59.336;17.998;2023-06-10T08:09:47;51977.38;;;-145.37;30.37
13486;BME280;6815;59.336;17.998;2023-06-10T08:12:13;51955.41;;;-145.37;29.40
13486;BME280;6815;59.336;17.998;2023-06-10T08:14:38;51941.44;;;-145.37;29.81
13486;BME280;6815;59.336;17.998;2023-06-10T08:17:04;51915.50;;;-145.37;29.53
13486;BME280;6815;59.336;17.998;2023-06-10T08:19:31;51935.47;;;-145.37;29.58
13486;BME280;6815;59.336;17.998;2023-06-10T08:21:56;51945.44;;;-145.37;29.81
13486;BME280;6815;59.336;17.998;2023-06-10T08:24:22;51927.47;;;-145.37;29.86
13486;BME280;6815;59.336;17.998;2023-06-10T08:26:47;51941.44;;;-145.37;28.72
13486;BME280;6815;59.336;17.998;2023-06-10T08:29:12;51919.50;;;-145.37;28.44
13486;BME280;6815;59.336;17.998;2023-06-10T08:31:41;51971.38;;;-145.37;27.88
13486;BME280;6815;59.336;17.998;2023-06-10T08:34:07;51921.47;;;-145.37;26.88
13486;BME280;6815;59.336;17.998;2023-06-10T08:36:33;52015.28;;;-145.37;26.61
13486;BME280;6815;59.336;17.998;2023-06-10T08:38:58;51939.44;;;-145.37;27.28
13486;BME280;6815;59.336;17.998;2023-06-10T08:41:25;51955.41;;;-145.37;27.79
13486;BME280;6815;59.336;17.998;2023-06-10T08:44:07;51987.34;;;-145.37;28.01
13486;BME280;6815;59.336;17.998;2023-06-10T08:46:34;51923.47;;;-145.37;28.61
13486;BME280;6815;59.336;17.998;2023-06-10T08:49:02;51985.34;;;-145.37;29.29
13486;BME280;6815;59.336;17.998;2023-06-10T08:51:29;51929.47;;;-145.37;29.21
13486;BME280;6815;59.336;17.998;2023-06-10T08:54:01;51943.44;;;-145.37;29.17
13486;BME280;6815;59.336;17.998;2023-06-10T08:56:28;51925.47;;;-145.37;29.29
13486;BME280;6815;59.336;17.998;2023-06-10T08:58:56;51973.38;;;-145.37;29.27
13486;BME280;6815;59.336;17.998;2023-06-10T09:01:23;52222.91;;;-145.37;29.37
13486;BME280;6815;59.336;17.998;2023-06-10T09:03:48;52051.22;;;-145.37;29.81
13486;BME280;6815;59.336;17.998;2023-06-10T09:06:15;51969.38;;;-145.37;29.48
13486;BME280;6815;59.336;17.998;2023-06-10T09:08:41;52107.13;;;-145.37;29.69
13486;BME280;6815;59.336;17.998;2023-06-10T09:11:07;51997.34;;;-145.37;29.49
13486;BME280;6815;59.336;17.998;2023-06-10T09:13:32;51955.41;;;-145.37;29.04
13486;BME280;6815;59.336;17.998;2023-06-10T09:15:58;51953.41;;;-145.37;29.39
13486;BME280;6815;59.336;17.998;2023-06-10T09:18:27;52005.31;;;-145.37;29.66
13486;BME280;6815;59.336;17.998;2023-06-10T09:20:53;51913.50;;;-145.37;29.19
13486;BME280;6815;59.336;17.998;2023-06-10T09:23:18;51981.38;;;-145.37;28.10
13486;BME280;6815;59.336;17.998;2023-06-10T09:25:44;51935.47;;;-145.37;28.22
13486;BME280;6815;59.336;17.998;2023-06-10T09:28:14;51945.44;;;-145.37;28.35
13486;BME280;6815;59.336;17.998;2023-06-10T09:30:40;51961.41;;;-145.37;28.12
13486;BME280;6815;59.336;17.998;2023-06-10T09:33:11;51913.50;;;-145.37;28.26
13486;BME280;6815;59.336;17.998;2023-06-10T09:35:48;51953.41;;;-145.37;28.40
13486;BME280;6815;59.336;17.998;2023-06-10T09:38:18;51965.41;;;-145.37;28.33
13486;BME280;6815;59.336;17.998;2023-06-10T09:40:51;51939.44;;;-145.37;28.05
13486;BME280;6815;59.336;17.998;2023-06-10T09:43:18;51913.50;;;-145.37;27.92
13486;BME280;6815;59.336;17.998;2023-06-10T09:45:43;51975.38;;;-145.37;28.10
13486;BME280;6815;59.336;17.998;2023-06-10T09:48:09;51945.44;;;-145.37;27.97
13486;BME280;6815;59.336;17.998;2023-06-10T09:50:42;51975.38;;;-145.37;28.26
13486;BME280;6815;59.336;17.998;2023-06-10T09:53:08;51931.47;;;-145.37;28.09
13486;BME280;6815;59.336;17.998;2023-06-10T09:55:33;51943.44;;;-145.37;27.84
13486;BME280;6815;59.336;17.998;2023-06-10T09:58:00;51965.41;;;-145.37;27.86
13486;BME280;6815;59.336;17.998;2023-06-10T10:00:25;51939.44;;;-145.37;28.03
13486;BME280;6815;59.336;17.998;2023-06-10T10:02:52;51971.38;;;-145.37;27.92
13486;BME280;6815;59.336;17.998;2023-06-10T10:05:20;51965.41;;;-145.37;27.47
13486;BME280;6815;59.336;17.998;2023-06-10T10:07:46;52037.25;;;-145.37;27.50
13486;BME280;6815;59.336;17.998;2023-06-10T10:10:13;51989.34;;;-145.37;27.96
13486;BME280;6815;59.336;17.998;2023-06-10T10:12:40;51969.38;;;-145.37;28.35
13486;BME280;6815;59.336;17.998;2023-06-10T10:15:09;51975.38;;;-145.37;28.38
13486;BME280;6815;59.336;17.998;2023-06-10T10:17:49;52155.03;;;-145.37;27.22
13486;BME280;6815;59.336;17.998;2023-06-10T10:20:20;51975.38;;;-145.37;26.70
13486;BME280;6815;59.336;17.998;2023-06-10T10:22:47;51909.50;;;-145.37;26.90
13486;BME280;6815;59.336;17.998;2023-06-10T10:25:16;51949.44;;;-145.37;26.83
13486;BME280;6815;59.336;17.998;2023-06-10T10:27:52;51953.41;;;-145.37;26.80
13486;BME280;6815;59.336;17.998;2023-06-10T10:30:20;51941.44;;;-145.37;26.57
13486;BME280;6815;59.336;17.998;2023-06-10T10:33:04;51957.41;;;-145.37;27.50
13486;BME280;6815;59.336;17.998;2023-06-10T10:35:30;51965.41;;;-145.37;27.78
13486;BME280;6815;59.336;17.998;2023-06-10T10:37:58;51929.47;;;-145.37;27.75
13486;BME280;6815;59.336;17.998;2023-06-10T10:40:24;51985.34;;;-145.37;27.67
13486;BME280;6815;59.336;17.998;2023-06-10T10:42:51;51965.41;;;-145.37;27.45
13486;BME280;6815;59.336;17.998;2023-06-10T10:45:16;51891.53;;;-145.37;27.58
13486;BME280;6815;59.336;17.998;2023-06-10T10:47:45;51961.41;;;-145.37;27.24
13486;BME280;6815;59.336;17.998;2023-06-10T10:50:18;51985.34;;;-145.37;27.42
13486;BME280;6815;59.336;17.998;2023-06-10T10:52:59;52226.91;;;-145.37;28.13
13486;BME280;6815;59.336;17.998;2023-06-10T10:55:28;51981.38;;;-145.37;29.08
13486;BME280;6815;59.336;17.998;2023-06-10T11:00:31;51937.44;;;-145.37;29.43
13486;BME280;6815;59.336;17.998;2023-06-10T11:03:16;51917.50;;;-145.37;30.06
13486;BME280;6815;59.336;17.998;2023-06-10T11:05:46;51989.34;;;-145.37;30.25
13486;BME280;6815;59.336;17.998;2023-06-10T11:11:19;51959.41;;;-145.37;29.68
13486;BME280;6815;59.336;17.998;2023-06-10T11:16:27;51933.47;;;-145.37;29.52
13486;BME280;6815;59.336;17.998;2023-06-10T11:18:54;51915.50;;;-145.37;29.54
13486;BME280;6815;59.336;17.998;2023-06-10T11:21:20;51947.44;;;-145.37;29.66
13486;BME280;6815;59.336;17.998;2023-06-10T11:23:45;52043.25;;;-145.37;29.52
13486;BME280;6815;59.336;17.998;2023-06-10T11:31:19;51987.34;;;-145.37;30.38
13486;BME280;6815;59.336;17.998;2023-06-10T11:33:47;51941.44;;;-145.37;30.68
13486;BME280;6815;59.336;17.998;2023-06-10T11:36:13;51885.56;;;-145.37;31.14
13486;BME280;6815;59.336;17.998;2023-06-10T11:38:40;51933.47;;;-145.37;31.38
13486;BME280;6815;59.336;17.998;2023-06-10T11:41:06;51959.41;;;-145.37;31.25
13486;BME280;6815;59.336;17.998;2023-06-10T11:43:33;51973.38;;;-145.37;30.84
13486;BME280;6815;59.336;17.998;2023-06-10T11:45:58;51997.34;;;-145.37;30.60
13486;BME280;6815;59.336;17.998;2023-06-10T11:48:25;51923.47;;;-145.37;30.43
13486;BME280;6815;59.336;17.998;2023-06-10T11:50:53;51951.41;;;-145.37;30.47
13486;BME280;6815;59.336;17.998;2023-06-10T11:53:19;51957.41;;;-145.37;30.50
13486;BME280;6815;59.336;17.998;2023-06-10T11:55:50;51931.47;;;-145.37;30.39
13486;BME280;6815;59.336;17.998;2023-06-10T11:58:17;51879.56;;;-145.37;30.06
13486;BME280;6815;59.336;17.998;2023-06-10T12:00:53;51919.50;;;-145.37;30.08
13486;BME280;6815;59.336;17.998;2023-06-10T12:03:21;51963.41;;;-145.37;29.76
13486;BME280;6815;59.336;17.998;2023-06-10T12:06:01;51903.50;;;-145.37;29.81
13486;BME280;6815;59.336;17.998;2023-06-10T12:08:27;51947.44;;;-145.37;29.89
13486;BME280;6815;59.336;17.998;2023-06-10T12:10:52;51913.50;;;-145.37;29.37
13486;BME280;6815;59.336;17.998;2023-06-10T12:13:18;51919.50;;;-145.37;29.30
13486;BME280;6815;59.336;17.998;2023-06-10T12:15:44;51883.56;;;-145.37;29.59
13486;BME280;6815;59.336;17.998;2023-06-10T12:18:20;51937.44;;;-145.37;29.21
13486;BME280;6815;59.336;17.998;2023-06-10T12:20:46;51893.53;;;-145.37;29.22
13486;BME280;6815;59.336;17.998;2023-06-10T12:23:14;51929.47;;;-145.37;29.00
13486;BME280;6815;59.336;17.998;2023-06-10T12:25:49;51909.50;;;-145.37;28.80
13486;BME280;6815;59.336;17.998;2023-06-10T12:28:15;51937.44;;;-145.37;28.96
13486;BME280;6815;59.336;17.998;2023-06-10T12:30:41;51917.50;;;-145.37;28.69
13486;BME280;6815;59.336;17.998;2023-06-10T12:33:16;51983.34;;;-145.37;28.70
13486;BME280;6815;59.336;17.998;2023-06-10T12:35:50;51971.38;;;-145.37;28.74
13486;BME280;6815;59.336;17.998;2023-06-10T12:38:21;51911.50;;;-145.37;28.75
13486;BME280;6815;59.336;17.998;2023-06-10T12:40:47;51961.41;;;-145.37;28.64
13486;BME280;6815;59.336;17.998;2023-06-10T12:43:13;51961.41;;;-145.37;28.61
13486;BME280;6815;59.336;17.998;2023-06-10T12:45:44;51921.47;;;-145.37;28.38
13486;BME280;6815;59.336;17.998;2023-06-10T12:48:11;51941.44;;;-145.37;28.27
13486;BME280;6815;59.336;17.998;2023-06-10T12:50:39;51945.44;;;-145.37;27.97
13486;BME280;6815;59.336;17.998;2023-06-10T12:53:05;51935.47;;;-145.37;28.05
13486;BME280;6815;59.336;17.998;2023-06-10T12:55:32;51979.38;;;-145.37;28.04
13486;BME280;6815;59.336;17.998;2023-06-10T12:57:58;51977.38;;;-145.37;27.68
13486;BME280;6815;59.336;17.998;2023-06-10T13:00:25;51945.44;;;-145.37;27.78